createdAt,value
2023-03-03T00:00:07.596Z,102235.81
2023-03-03T00:02:40.541Z,102115.81
2023-03-03T00:05:07.507Z,102179.47
2023-03-03T00:07:34.079Z,102110.59
2023-03-03T00:10:00.758Z,102249.44
2023-03-03T00:12:29.765Z,102243.75
2023-03-03T00:14:56.906Z,102220.53
2023-03-03T00:17:26.255Z,102243.06
2023-03-03T00:19:53.444Z,102202.59
2023-03-03T00:22:40.161Z,102136.94
2023-03-03T00:25:31.403Z,102256.50
2023-03-03T00:28:22.405Z,102254.25
2023-03-03T00:30:49.361Z,102131.75
2023-03-03T00:33:33.964Z,102181.97
2023-03-03T00:36:16.340Z,102260.84
2023-03-03T00:38:43.487Z,102235.88
2023-03-03T00:41:27.413Z,102242.94
2023-03-03T00:43:54.556Z,102224.97
2023-03-03T00:46:23.884Z,102177.44
2023-03-03T00:48:51.443Z,102140.06
2023-03-03T00:51:28.243Z,101940.25
2023-03-03T00:53:56.236Z,102201.78
2023-03-03T00:56:23.432Z,102268.97
2023-03-03T00:58:50.947Z,102271.44
2023-03-03T01:01:19.766Z,102258.13
2023-03-03T01:03:50.583Z,102162.56
2023-03-03T01:06:17.183Z,102194.03
2023-03-03T01:08:43.915Z,102104.72
2023-03-03T01:11:16.407Z,102262.81
2023-03-03T01:13:46.300Z,102164.59
2023-03-03T01:16:13.307Z,102187.00
2023-03-03T01:18:41.765Z,102144.03
2023-03-03T01:21:09.408Z,102281.22
2023-03-03T01:23:36.240Z,102253.34
2023-03-03T01:26:04.883Z,102283.03
2023-03-03T01:28:33.174Z,102175.72
2023-03-03T01:31:04.845Z,102181.16
2023-03-03T01:33:32.895Z,102274.38
2023-03-03T01:35:59.562Z,102270.41
2023-03-03T01:38:26.668Z,102271.75
2023-03-03T01:40:55.217Z,102203.69
2023-03-03T01:43:22.273Z,102168.69
2023-03-03T01:45:48.828Z,102278.13
2023-03-03T01:48:25.280Z,102241.72
2023-03-03T01:51:01.794Z,102241.47
2023-03-03T01:53:30.632Z,102284.50
2023-03-03T01:55:57.602Z,102178.78
2023-03-03T01:58:33.489Z,102263.22
2023-03-03T02:01:05.520Z,102257.88
2023-03-03T02:03:33.510Z,102234.69
2023-03-03T02:06:05.992Z,102164.69
2023-03-03T02:08:43.006Z,102279.22
2023-03-03T02:11:11.031Z,102162.28
2023-03-03T02:13:37.695Z,102178.78
2023-03-03T02:16:04.670Z,102261.06
2023-03-03T02:18:31.658Z,102280.28
2023-03-03T02:21:11.751Z,102191.97
2023-03-03T02:24:00.538Z,102256.63
2023-03-03T02:26:29.854Z,102263.09
2023-03-03T02:29:01.562Z,102279.25
2023-03-03T02:31:30.584Z,102191.63
2023-03-03T02:33:58.371Z,102221.50
2023-03-03T02:36:26.395Z,102297.16
2023-03-03T02:39:09.077Z,102299.88
2023-03-03T02:41:44.840Z,102288.72
2023-03-03T02:44:15.925Z,102189.94
2023-03-03T02:46:46.911Z,102277.44
2023-03-03T02:49:16.504Z,102194.69
2023-03-03T02:51:43.657Z,102276.41
2023-03-03T02:54:12.926Z,102191.16
2023-03-03T02:56:39.895Z,102244.69
2023-03-03T02:59:07.461Z,102268.78
2023-03-03T03:01:39.398Z,102283.44
2023-03-03T03:04:12.168Z,102161.25
2023-03-03T03:06:43.132Z,102266.38
2023-03-03T03:09:12.110Z,102176.66
2023-03-03T03:11:39.496Z,102086.97
2023-03-03T03:14:08.155Z,102186.94
2023-03-03T03:16:35.783Z,102192.59
2023-03-03T03:19:03.627Z,102254.44
2023-03-03T03:21:31.507Z,102194.41
2023-03-03T03:23:59.502Z,102174.34
2023-03-03T03:26:26.775Z,102233.63
2023-03-03T03:28:53.798Z,102268.84
2023-03-03T03:31:21.076Z,102287.19
2023-03-03T03:33:47.906Z,102243.53
2023-03-03T03:36:16.622Z,102285.38
2023-03-03T03:38:43.317Z,102166.16
2023-03-03T03:41:12.267Z,102294.25
2023-03-03T03:43:38.943Z,102170.81
2023-03-03T03:46:05.935Z,102206.47
2023-03-03T03:48:33.639Z,102271.63
2023-03-03T03:51:01.855Z,102266.94
2023-03-03T03:53:29.323Z,102218.97
2023-03-03T03:55:56.010Z,102173.47
2023-03-03T03:58:22.661Z,102274.41
2023-03-03T04:01:03.475Z,102251.69
2023-03-03T04:03:30.185Z,102238.13
2023-03-03T04:05:56.901Z,102172.31
2023-03-03T04:08:23.878Z,102160.38
2023-03-03T04:10:50.744Z,102228.25
2023-03-03T04:13:17.809Z,102170.06
2023-03-03T04:15:45.141Z,102202.56
2023-03-03T04:18:12.094Z,102219.16
2023-03-03T04:20:40.165Z,102270.31
2023-03-03T04:23:07.667Z,102285.56
2023-03-03T04:25:34.380Z,102202.78
2023-03-03T04:28:03.948Z,102288.72
2023-03-03T04:30:32.474Z,102221.84
2023-03-03T04:32:59.362Z,102103.50
2023-03-03T04:35:27.386Z,102171.16
2023-03-03T04:37:54.168Z,102256.19
2023-03-03T04:40:20.887Z,102256.19
2023-03-03T04:42:50.220Z,102285.50
2023-03-03T04:45:17.241Z,102270.84
2023-03-03T04:47:44.208Z,102261.41
2023-03-03T04:50:11.596Z,102190.03
2023-03-03T04:52:38.483Z,102280.03
2023-03-03T04:55:09.346Z,102258.88
2023-03-03T04:57:38.031Z,102186.13
2023-03-03T05:00:06.613Z,102192.06
2023-03-03T05:02:33.177Z,102301.28
2023-03-03T05:05:00.652Z,102285.72
2023-03-03T05:07:27.222Z,102194.13
2023-03-03T05:09:53.778Z,102199.81
2023-03-03T05:12:21.192Z,102243.44
2023-03-03T05:14:47.747Z,102190.72
2023-03-03T05:17:14.450Z,102312.56
2023-03-03T05:19:41.164Z,102311.41
2023-03-03T05:22:07.966Z,102209.22
2023-03-03T05:24:34.497Z,102226.38
2023-03-03T05:27:01.470Z,102313.22
2023-03-03T05:29:28.582Z,102322.31
2023-03-03T05:31:55.152Z,102291.41
2023-03-03T05:34:21.824Z,102282.50
2023-03-03T05:36:51.536Z,102281.81
2023-03-03T05:39:18.175Z,102314.66
2023-03-03T05:41:44.762Z,102280.22
2023-03-03T05:44:11.313Z,102247.91
2023-03-03T05:46:37.834Z,102217.91
2023-03-03T05:49:04.386Z,102207.91
2023-03-03T05:51:30.996Z,102289.25
2023-03-03T05:53:57.607Z,102292.47
2023-03-03T05:56:24.149Z,102208.22
2023-03-03T05:58:50.727Z,102303.59
2023-03-03T06:01:17.380Z,102278.34
2023-03-03T06:03:43.888Z,102294.81
2023-03-03T06:06:10.514Z,102278.56
2023-03-03T06:08:37.056Z,102197.63
2023-03-03T06:11:03.783Z,102295.81
2023-03-03T06:13:30.419Z,102310.06
2023-03-03T06:15:56.990Z,102326.13
2023-03-03T06:18:23.611Z,102299.94
2023-03-03T06:20:54.528Z,102240.72
2023-03-03T06:23:21.774Z,102307.13
2023-03-03T06:25:48.443Z,102321.34
2023-03-03T06:28:15.106Z,102283.00
2023-03-03T06:30:41.712Z,102193.78
2023-03-03T06:33:08.198Z,102233.28
2023-03-03T06:35:34.909Z,102338.16
2023-03-03T06:38:01.572Z,102321.78
2023-03-03T06:40:28.271Z,102310.88
2023-03-03T06:42:55.358Z,102325.41
2023-03-03T06:45:21.939Z,102324.63
2023-03-03T06:47:48.495Z,102353.84
2023-03-03T06:50:20.138Z,102197.53
2023-03-03T06:52:46.914Z,102277.75
2023-03-03T06:55:20.623Z,102360.63
2023-03-03T06:57:47.250Z,102345.59
2023-03-03T07:00:25.324Z,102281.59
2023-03-03T07:03:05.931Z,102353.44
2023-03-03T07:05:34.353Z,102266.25
2023-03-03T07:08:00.881Z,102301.00
2023-03-03T07:10:30.172Z,102367.69
2023-03-03T07:13:02.179Z,102368.28
2023-03-03T07:15:37.622Z,102382.25
2023-03-03T07:18:21.489Z,102293.00
2023-03-03T07:20:48.220Z,102311.06
2023-03-03T07:23:27.794Z,102396.78
2023-03-03T07:25:55.123Z,102296.31
2023-03-03T07:28:28.314Z,102316.53
2023-03-03T07:30:57.019Z,102310.50
2023-03-03T07:33:30.356Z,102312.84
2023-03-03T07:35:59.450Z,102407.91
2023-03-03T07:38:40.402Z,102315.34
2023-03-03T07:41:25.243Z,102415.59
2023-03-03T07:44:18.103Z,102416.72
2023-03-03T07:46:48.151Z,102382.47
2023-03-03T07:49:33.869Z,102403.28
2023-03-03T07:52:01.604Z,102411.69
2023-03-03T07:54:43.539Z,102410.06
2023-03-03T07:57:09.992Z,102428.56
2023-03-03T07:59:38.518Z,102337.41
2023-03-03T08:02:25.727Z,102269.25
2023-03-03T08:04:52.690Z,102415.97
2023-03-03T08:07:22.267Z,102420.81
2023-03-03T08:10:01.912Z,102438.31
2023-03-03T08:12:33.791Z,102441.13
2023-03-03T08:15:24.416Z,102431.03
2023-03-03T08:17:53.221Z,102402.22
2023-03-03T08:20:25.660Z,102447.91
2023-03-03T08:22:52.302Z,102442.66
2023-03-03T08:25:18.878Z,102424.84
2023-03-03T08:27:45.439Z,102393.03
2023-03-03T08:30:12.425Z,102359.97
2023-03-03T08:32:39.165Z,102429.41
2023-03-03T08:35:06.184Z,102428.38
2023-03-03T08:37:32.707Z,102443.22
2023-03-03T08:39:59.404Z,102333.69
2023-03-03T08:42:26.096Z,102449.59
2023-03-03T08:44:52.640Z,102441.06
2023-03-03T08:47:20.543Z,102462.06
2023-03-03T08:49:47.748Z,102367.50
2023-03-03T08:52:14.281Z,102437.94
2023-03-03T08:54:40.868Z,102445.59
2023-03-03T08:57:07.959Z,102416.53
2023-03-03T08:59:38.912Z,102433.72
2023-03-03T09:02:06.685Z,102454.44
2023-03-03T09:04:33.519Z,102422.47
2023-03-03T09:07:00.384Z,102470.22
2023-03-03T09:09:26.985Z,102439.16
2023-03-03T09:11:58.708Z,102449.31
2023-03-03T09:14:28.978Z,102476.41
2023-03-03T09:16:57.151Z,102405.47
2023-03-03T09:19:29.653Z,102460.88
2023-03-03T09:22:16.972Z,102442.97
2023-03-03T09:24:43.586Z,102383.09
2023-03-03T09:27:30.827Z,102470.88
2023-03-03T09:30:33.236Z,102488.63
2023-03-03T09:32:59.841Z,102399.28
2023-03-03T09:35:26.866Z,102402.03
2023-03-03T09:37:53.542Z,102481.69
2023-03-03T09:40:52.654Z,102482.69
2023-03-03T09:43:51.249Z,102401.66
2023-03-03T09:46:42.957Z,102491.13
2023-03-03T09:49:12.530Z,102493.50
2023-03-03T09:51:42.059Z,102494.59
2023-03-03T09:54:41.814Z,102475.13
2023-03-03T09:57:39.792Z,102499.13
2023-03-03T10:00:45.915Z,102499.50
2023-03-03T10:03:32.134Z,102499.13
2023-03-03T10:06:19.958Z,102500.50
2023-03-03T10:09:33.996Z,102501.13
2023-03-03T10:12:28.490Z,102497.56
2023-03-03T10:15:07.522Z,102503.63
2023-03-03T10:17:43.254Z,102500.84
2023-03-03T10:20:09.740Z,102495.88
2023-03-03T10:22:48.612Z,102412.50
2023-03-03T10:25:53.020Z,102499.22
2023-03-03T10:28:44.419Z,102497.31
2023-03-03T10:31:39.219Z,102496.25
2023-03-03T10:34:41.442Z,102502.97
2023-03-03T10:37:38.728Z,102409.28
2023-03-03T10:40:16.299Z,102418.44
2023-03-03T10:43:01.688Z,102502.34
2023-03-03T10:45:48.636Z,102459.03
2023-03-03T10:48:39.800Z,102492.59
2023-03-03T10:51:33.282Z,102496.19
2023-03-03T10:54:23.957Z,102490.72
2023-03-03T10:56:55.650Z,102474.13
2023-03-03T10:59:58.848Z,102381.41
2023-03-03T11:02:37.186Z,102499.59
2023-03-03T11:05:29.868Z,102495.00
2023-03-03T11:08:02.238Z,102373.84
2023-03-03T11:10:44.091Z,102492.53
2023-03-03T11:13:26.193Z,102482.13
2023-03-03T11:16:09.769Z,102465.00
2023-03-03T11:18:45.543Z,102486.53
2023-03-03T11:21:47.627Z,102481.81
2023-03-03T11:24:39.475Z,102353.00
2023-03-03T11:27:32.973Z,102473.38
2023-03-03T11:30:18.840Z,102466.81
2023-03-03T11:33:35.441Z,102425.81
2023-03-03T11:36:07.561Z,102458.38
2023-03-03T11:38:40.197Z,102456.09
2023-03-03T11:41:09.593Z,102445.34
2023-03-03T11:44:12.948Z,102448.44
2023-03-03T11:46:46.397Z,102453.91
2023-03-03T11:49:36.222Z,102407.38
2023-03-03T11:52:08.769Z,102449.75
2023-03-03T11:54:53.863Z,102443.41
2023-03-03T11:57:31.586Z,102445.94
2023-03-03T12:00:16.343Z,102448.88
2023-03-03T12:02:54.844Z,102431.38
2023-03-03T12:05:47.574Z,102430.53
2023-03-03T12:08:16.887Z,102421.94
2023-03-03T12:10:57.689Z,102398.72
2023-03-03T12:13:36.668Z,102359.25
2023-03-03T12:16:22.145Z,102419.44
2023-03-03T12:18:59.579Z,102411.44
2023-03-03T12:21:46.548Z,102416.81
2023-03-03T12:24:31.657Z,102417.69
2023-03-03T12:27:14.589Z,102400.56
2023-03-03T12:30:07.207Z,102380.84
2023-03-03T12:32:39.753Z,102415.94
2023-03-03T12:35:20.488Z,102408.72
2023-03-03T12:37:53.005Z,102329.59
2023-03-03T12:40:19.560Z,102407.72
2023-03-03T12:43:07.867Z,102400.59
2023-03-03T12:45:54.186Z,102399.75
2023-03-03T12:48:46.436Z,102387.03
2023-03-03T12:51:32.576Z,102381.50
2023-03-03T12:54:36.909Z,102383.09
2023-03-03T12:57:03.591Z,102381.16
2023-03-03T12:59:54.673Z,102383.03
2023-03-03T13:02:47.284Z,102347.66
2023-03-03T13:05:40.753Z,102357.75
2023-03-03T13:08:33.910Z,102365.50
2023-03-03T13:11:43.829Z,102368.34
2023-03-03T13:14:22.206Z,102280.81
2023-03-03T13:17:09.434Z,102362.91
2023-03-03T13:19:43.749Z,102266.72
2023-03-03T13:22:34.936Z,102370.09
2023-03-03T13:25:34.230Z,102361.44
2023-03-03T13:28:07.416Z,102356.38
2023-03-03T13:30:38.337Z,102285.22
2023-03-03T13:33:26.929Z,102369.13
2023-03-03T13:35:55.076Z,102376.13
2023-03-03T13:38:27.895Z,102352.97
2023-03-03T13:41:04.229Z,102329.25
2023-03-03T13:43:38.746Z,102278.34
2023-03-03T13:46:17.981Z,102330.31
2023-03-03T13:48:56.099Z,102359.63
2023-03-03T13:51:35.297Z,102314.25
2023-03-03T13:54:14.120Z,102343.44
2023-03-03T13:57:04.322Z,102334.81
2023-03-03T13:59:50.179Z,102322.44
2023-03-03T14:02:19.794Z,102351.88
2023-03-03T14:04:58.726Z,102321.50
2023-03-03T14:07:45.090Z,102256.81
2023-03-03T14:10:18.303Z,102343.09
2023-03-03T14:12:57.256Z,102277.50
2023-03-03T14:15:41.933Z,102341.28
2023-03-03T14:18:34.600Z,102349.63
2023-03-03T14:21:10.967Z,102331.41
2023-03-03T14:23:55.649Z,102329.59
2023-03-03T14:26:22.333Z,102235.28
2023-03-03T14:28:52.396Z,102316.50
2023-03-03T14:31:31.545Z,102316.94
2023-03-03T14:34:06.116Z,102323.41
2023-03-03T14:36:38.506Z,102311.22
2023-03-03T14:39:28.278Z,102331.06
2023-03-03T14:41:57.488Z,102328.78
2023-03-03T14:44:30.161Z,102286.53
2023-03-03T14:47:05.980Z,102244.03
2023-03-03T14:49:36.741Z,102322.78
2023-03-03T14:52:09.734Z,102240.75
2023-03-03T14:54:42.730Z,102311.63
2023-03-03T14:57:41.711Z,102333.84
2023-03-03T15:00:31.789Z,102330.88
2023-03-03T15:03:23.338Z,102207.56
2023-03-03T15:05:52.198Z,102233.09
2023-03-03T15:08:32.888Z,102321.84
2023-03-03T15:11:36.392Z,102306.50
2023-03-03T15:14:18.429Z,102210.44
2023-03-03T15:16:45.265Z,102310.94
2023-03-03T15:19:33.506Z,102306.78
2023-03-03T15:22:18.746Z,102302.84
2023-03-03T15:25:15.025Z,102279.66
2023-03-03T15:28:13.323Z,102185.03
2023-03-03T15:30:53.255Z,102265.22
2023-03-03T15:33:33.441Z,102281.88
2023-03-03T15:36:04.378Z,102281.19
2023-03-03T15:38:59.271Z,102181.78
2023-03-03T15:41:45.004Z,102172.53
2023-03-03T15:44:32.484Z,102272.88
2023-03-03T15:47:25.709Z,102244.34
2023-03-03T15:50:04.826Z,102268.50
2023-03-03T15:52:56.761Z,102252.78
2023-03-03T15:55:49.795Z,102249.78
2023-03-03T15:58:19.266Z,102280.19
2023-03-03T16:00:45.765Z,102279.94
2023-03-03T16:03:31.276Z,102265.25
2023-03-03T16:06:12.225Z,102272.38
2023-03-03T16:08:44.547Z,102276.03
2023-03-03T16:11:39.275Z,102276.38
2023-03-03T16:14:30.127Z,102247.56
2023-03-03T16:17:21.066Z,102271.63
2023-03-03T16:20:01.140Z,102217.47
2023-03-03T16:22:30.608Z,102269.13
2023-03-03T16:25:23.552Z,102282.00
2023-03-03T16:28:20.387Z,102276.84
2023-03-03T16:31:03.212Z,102108.94
2023-03-03T16:33:43.937Z,102291.03
2023-03-03T16:36:38.929Z,102299.19
2023-03-03T16:39:30.105Z,102309.41
2023-03-03T16:42:07.873Z,102204.53
2023-03-03T16:44:45.842Z,102257.19
2023-03-03T16:47:26.074Z,102295.66
2023-03-03T16:50:08.047Z,102139.84
2023-03-03T16:52:48.119Z,102303.78
2023-03-03T16:55:36.493Z,102319.59
2023-03-03T16:58:24.064Z,102297.81
2023-03-03T17:01:01.176Z,102153.09
2023-03-03T17:03:52.990Z,102308.84
2023-03-03T17:06:28.987Z,102308.56
2023-03-03T17:09:32.196Z,102323.44
2023-03-03T17:12:08.532Z,102332.75
2023-03-03T17:14:59.294Z,102339.41
2023-03-03T17:17:34.512Z,102274.72
2023-03-03T17:20:19.940Z,102344.97
2023-03-03T17:23:17.653Z,102340.81
2023-03-03T17:26:05.457Z,102342.00
2023-03-03T17:28:44.057Z,102342.53
2023-03-03T17:31:23.589Z,102275.69
2023-03-03T17:34:09.035Z,102351.41
2023-03-03T17:36:46.789Z,102351.97
2023-03-03T17:39:13.348Z,102348.34
2023-03-03T17:42:09.198Z,102363.06
2023-03-03T17:45:15.381Z,102326.09
2023-03-03T17:48:03.317Z,102343.66
2023-03-03T17:50:45.114Z,102378.66
2023-03-03T17:53:40.926Z,102367.75
2023-03-03T17:56:28.081Z,102287.63
2023-03-03T17:59:18.952Z,102279.47
2023-03-03T18:02:00.712Z,102382.69
2023-03-03T18:04:42.520Z,102391.78
2023-03-03T18:07:42.397Z,102372.63
2023-03-03T18:10:53.613Z,102384.09
2023-03-03T18:13:35.345Z,102388.19
2023-03-03T18:16:18.803Z,102289.50
2023-03-03T18:19:17.131Z,102380.56
2023-03-03T18:21:58.649Z,102370.03
2023-03-03T18:24:25.177Z,102399.19
2023-03-03T18:26:56.013Z,102370.19
2023-03-03T18:29:27.781Z,102403.75
2023-03-03T18:31:57.414Z,102396.47
2023-03-03T18:34:33.546Z,102398.72
2023-03-03T18:37:40.798Z,102388.09
2023-03-03T18:40:10.409Z,102410.59
2023-03-03T18:42:42.467Z,102312.16
2023-03-03T18:45:15.049Z,102412.16
2023-03-03T18:48:00.726Z,102409.59
2023-03-03T18:50:34.268Z,102418.94
2023-03-03T18:53:30.500Z,102348.69
2023-03-03T18:55:59.801Z,102422.81
2023-03-03T18:58:26.456Z,102418.44
2023-03-03T19:00:59.867Z,102415.63
2023-03-03T19:03:33.726Z,102429.38
2023-03-03T19:06:01.520Z,102380.50
2023-03-03T19:08:45.924Z,102407.06
2023-03-03T19:11:32.309Z,102436.44
2023-03-03T19:14:25.626Z,102419.00
2023-03-03T19:16:53.804Z,102335.28
2023-03-03T19:19:23.676Z,102405.75
2023-03-03T19:22:11.925Z,102338.81
2023-03-03T19:24:38.653Z,102353.16
2023-03-03T19:27:32.777Z,102361.25
2023-03-03T19:30:22.274Z,102397.84
2023-03-03T19:33:21.245Z,102432.72
2023-03-03T19:35:57.205Z,102438.81
2023-03-03T19:38:51.261Z,102433.78
2023-03-03T19:41:40.005Z,102429.59
2023-03-03T19:44:41.893Z,102433.16
2023-03-03T19:47:53.110Z,102304.28
2023-03-03T19:50:44.331Z,102429.59
2023-03-03T19:53:18.449Z,102432.31
2023-03-03T19:56:19.668Z,102429.22
2023-03-03T19:59:08.214Z,102322.41
2023-03-03T20:01:53.590Z,102438.84
2023-03-03T20:04:30.631Z,102310.34
2023-03-03T20:07:03.275Z,102432.59
2023-03-03T20:09:36.254Z,102429.94
2023-03-03T20:12:19.360Z,102420.88
2023-03-03T20:15:13.907Z,102391.53
2023-03-03T20:18:24.908Z,102431.06
2023-03-03T20:21:13.048Z,102448.16
2023-03-03T20:23:58.903Z,102378.03
2023-03-03T20:26:43.693Z,102355.69
2023-03-03T20:29:34.976Z,102453.53
2023-03-03T20:32:14.139Z,102460.34
2023-03-03T20:35:10.818Z,102329.69
2023-03-03T20:37:49.528Z,102463.81
2023-03-03T20:40:36.266Z,102442.69
2023-03-03T20:43:11.714Z,102461.25
2023-03-03T20:45:50.443Z,102463.97
2023-03-03T20:48:50.960Z,102461.59
2023-03-03T20:51:53.037Z,102463.50
2023-03-03T20:54:59.920Z,102465.25
2023-03-03T20:57:53.939Z,102453.59
2023-03-03T21:00:24.499Z,102432.78
2023-03-03T21:03:06.313Z,102459.69
2023-03-03T21:05:32.966Z,102434.44
2023-03-03T21:08:01.859Z,102412.81
2023-03-03T21:10:31.754Z,102448.25
2023-03-03T21:13:33.572Z,102430.34
2023-03-03T21:16:06.051Z,102387.66
2023-03-03T21:18:32.610Z,102443.22
2023-03-03T21:20:59.169Z,102382.19
2023-03-03T21:23:25.830Z,102437.69
2023-03-03T21:25:58.724Z,102276.19
2023-03-03T21:28:32.588Z,102441.59
2023-03-03T21:30:58.993Z,102440.94
2023-03-03T21:33:54.421Z,102445.22
2023-03-03T21:36:25.787Z,102432.03
2023-03-03T21:38:53.683Z,102325.34
2023-03-03T21:41:20.907Z,102439.75
2023-03-03T21:43:50.259Z,102282.66
2023-03-03T21:46:24.806Z,102430.50
2023-03-03T21:48:52.509Z,102413.50
2023-03-03T21:51:20.377Z,102401.78
2023-03-03T21:53:47.641Z,102418.06
2023-03-03T21:56:14.323Z,102447.03
2023-03-03T21:58:41.962Z,102394.53
2023-03-03T22:01:09.102Z,102418.47
2023-03-03T22:03:35.992Z,102434.09
2023-03-03T22:06:02.829Z,102423.28
2023-03-03T22:08:29.589Z,102436.81
2023-03-03T22:10:56.455Z,102311.78
2023-03-03T22:13:24.363Z,102391.84
2023-03-03T22:15:51.651Z,102422.47
2023-03-03T22:18:19.370Z,102335.56
2023-03-03T22:20:47.461Z,102325.75
2023-03-03T22:23:14.946Z,102404.81
2023-03-03T22:25:42.293Z,102312.03
2023-03-03T22:28:09.463Z,102369.97
2023-03-03T22:30:39.538Z,102400.75
2023-03-03T22:33:06.096Z,102426.44
2023-03-03T22:35:32.723Z,102336.53
2023-03-03T22:37:59.599Z,102383.75
2023-03-03T22:40:26.285Z,102385.50
2023-03-03T22:42:52.993Z,102325.75
2023-03-03T22:45:19.615Z,102346.69
2023-03-03T22:47:46.256Z,102320.13
2023-03-03T22:50:13.546Z,102401.09
2023-03-03T22:52:40.152Z,102352.16
2023-03-03T22:55:07.328Z,102397.28
2023-03-03T22:57:33.968Z,102411.00
2023-03-03T23:00:02.396Z,102401.19
2023-03-03T23:02:29.904Z,102414.47
2023-03-03T23:05:01.672Z,102321.59
2023-03-03T23:07:29.154Z,102399.50
2023-03-03T23:09:56.387Z,102426.75
2023-03-03T23:12:23.765Z,102317.88
2023-03-03T23:14:50.403Z,102425.91
2023-03-03T23:17:16.999Z,102313.50
2023-03-03T23:19:46.080Z,102437.66
2023-03-03T23:22:13.633Z,102402.47
2023-03-03T23:24:41.054Z,102331.84
2023-03-03T23:27:09.055Z,102406.28
2023-03-03T23:29:35.798Z,102389.19
2023-03-03T23:32:03.650Z,102419.91
2023-03-03T23:34:31.156Z,102327.47
2023-03-03T23:36:57.958Z,102386.47
2023-03-03T23:39:24.520Z,102374.69
2023-03-03T23:41:51.167Z,102371.38
2023-03-03T23:44:17.843Z,102378.31
2023-03-03T23:46:45.257Z,102401.25
2023-03-03T23:49:11.933Z,102400.66
2023-03-03T23:51:38.539Z,102399.94
2023-03-03T23:54:05.177Z,102433.53
2023-03-03T23:56:31.655Z,102388.13
2023-03-03T23:58:58.226Z,102411.56
